sensor_id;sensor_type;location;lat;lon;timestamp;pressure;altitude;pressure_sealevel;temperature;humidity
8637;BME280;4356;49.068;8.658;2023-01-25T00:00:48;101629.66;;;16.55;34.82
8637;BME280;4356;49.068;8.658;2023-01-25T00:03:14;101647.66;;;16.64;35.01
8637;BME280;4356;49.068;8.658;2023-01-25T00:05:40;101642.41;;;16.62;35.03
8637;BME280;4356;49.068;8.658;2023-01-25T00:08:05;101640.72;;;16.61;34.79
8637;BME280;4356;49.068;8.658;2023-01-25T00:10:31;101616.63;;;16.50;35.04
8637;BME280;4356;49.068;8.658;2023-01-25T00:12:57;101634.59;;;16.59;35.28
8637;BME280;4356;49.068;8.658;2023-01-25T00:15:23;101624.75;;;16.58;35.01
8637;BME280;4356;49.068;8.658;2023-01-25T00:17:48;101617.94;;;16.54;34.97
8637;BME280;4356;49.068;8.658;2023-01-25T00:20:14;101619.84;;;16.54;35.03
8637;BME280;4356;49.068;8.658;2023-01-25T00:22:40;101626.25;;;16.53;35.15
8637;BME280;4356;49.068;8.658;2023-01-25T00:25:06;101627.13;;;16.53;35.36
8637;BME280;4356;49.068;8.658;2023-01-25T00:27:32;101617.44;;;16.51;35.30
8637;BME280;4356;49.068;8.658;2023-01-25T00:29:58;101620.16;;;16.51;35.14
8637;BME280;4356;49.068;8.658;2023-01-25T00:32:32;101621.19;;;16.50;35.12
8637;BME280;4356;49.068;8.658;2023-01-25T00:35:00;101615.75;;;16.50;35.09
8637;BME280;4356;49.068;8.658;2023-01-25T00:37:36;101609.09;;;16.44;35.28
8637;BME280;4356;49.068;8.658;2023-01-25T00:40:03;101610.63;;;16.46;35.04
8637;BME280;4356;49.068;8.658;2023-01-25T00:42:29;101603.50;;;16.37;35.23
8637;BME280;4356;49.068;8.658;2023-01-25T00:44:55;101603.16;;;16.40;35.04
8637;BME280;4356;49.068;8.658;2023-01-25T00:47:20;101595.53;;;16.44;35.20
8637;BME280;4356;49.068;8.658;2023-01-25T00:49:46;101601.13;;;16.42;35.25
8637;BME280;4356;49.068;8.658;2023-01-25T00:52:13;101595.88;;;16.41;35.45
8637;BME280;4356;49.068;8.658;2023-01-25T00:54:39;101595.88;;;16.41;35.23
8637;BME280;4356;49.068;8.658;2023-01-25T00:57:05;101597.72;;;16.40;35.31
8637;BME280;4356;49.068;8.658;2023-01-25T00:59:31;101588.91;;;16.38;35.54
8637;BME280;4356;49.068;8.658;2023-01-25T01:01:57;101584.50;;;16.37;35.41
8637;BME280;4356;49.068;8.658;2023-01-25T01:04:23;101569.75;;;16.32;35.42
8637;BME280;4356;49.068;8.658;2023-01-25T01:06:52;101558.69;;;16.25;35.19
8637;BME280;4356;49.068;8.658;2023-01-25T01:09:19;101576.50;;;16.36;35.32
8637;BME280;4356;49.068;8.658;2023-01-25T01:11:45;101586.53;;;16.35;35.37
8637;BME280;4356;49.068;8.658;2023-01-25T01:14:11;101544.47;;;16.15;34.95
8637;BME280;4356;49.068;8.658;2023-01-25T01:16:37;101570.91;;;16.29;35.19
8637;BME280;4356;49.068;8.658;2023-01-25T01:19:03;101571.94;;;16.28;35.33
8637;BME280;4356;49.068;8.658;2023-01-25T01:21:29;101587.03;;;16.31;35.63
8637;BME280;4356;49.068;8.658;2023-01-25T01:23:55;101575.31;;;16.22;35.53
8637;BME280;4356;49.068;8.658;2023-01-25T01:26:22;101585.66;;;16.27;35.46
8637;BME280;4356;49.068;8.658;2023-01-25T01:28:48;101555.66;;;16.12;35.49
8637;BME280;4356;49.068;8.658;2023-01-25T01:31:18;101568.53;;;16.18;35.24
8637;BME280;4356;49.068;8.658;2023-01-25T01:33:49;101577.00;;;16.23;35.45
8637;BME280;4356;49.068;8.658;2023-01-25T01:36:17;101583.78;;;16.27;35.58
8637;BME280;4356;49.068;8.658;2023-01-25T01:38:44;101580.41;;;16.25;35.51
8637;BME280;4356;49.068;8.658;2023-01-25T01:41:10;101574.47;;;16.22;35.68
8637;BME280;4356;49.068;8.658;2023-01-25T01:43:37;101584.31;;;16.23;35.70
8637;BME280;4356;49.068;8.658;2023-01-25T01:46:24;101584.13;;;16.24;35.58
8637;BME280;4356;49.068;8.658;2023-01-25T01:49:00;101572.09;;;16.19;35.85
8637;BME280;4356;49.068;8.658;2023-01-25T01:51:44;101581.59;;;16.23;35.46
8637;BME280;4356;49.068;8.658;2023-01-25T01:54:22;101571.22;;;16.18;35.73
8637;BME280;4356;49.068;8.658;2023-01-25T01:56:54;101574.97;;;16.17;35.67
8637;BME280;4356;49.068;8.658;2023-01-25T01:59:27;101578.00;;;16.14;35.67
8637;BME280;4356;49.068;8.658;2023-01-25T02:01:55;101575.28;;;16.14;35.91
8637;BME280;4356;49.068;8.658;2023-01-25T02:04:22;101579.72;;;16.15;35.60
8637;BME280;4356;49.068;8.658;2023-01-25T02:09:53;101576.31;;;16.13;35.80
8637;BME280;4356;49.068;8.658;2023-01-25T02:12:20;101575.47;;;16.13;35.82
8637;BME280;4356;49.068;8.658;2023-01-25T02:14:51;101583.78;;;16.11;35.65
8637;BME280;4356;49.068;8.658;2023-01-25T02:17:29;101576.50;;;16.12;35.79
8637;BME280;4356;49.068;8.658;2023-01-25T02:23:22;101579.84;;;16.06;35.61
8637;BME280;4356;49.068;8.658;2023-01-25T02:25:50;101570.16;;;16.03;35.91
8637;BME280;4356;49.068;8.658;2023-01-25T02:28:23;101573.75;;;16.04;35.50
8637;BME280;4356;49.068;8.658;2023-01-25T02:30:51;101577.81;;;16.08;35.80
8637;BME280;4356;49.068;8.658;2023-01-25T02:33:17;101561.38;;;16.01;35.62
8637;BME280;4356;49.068;8.658;2023-01-25T02:35:49;101560.88;;;16.06;35.85
8637;BME280;4356;49.068;8.658;2023-01-25T02:38:19;101552.91;;;16.04;35.85
8637;BME280;4356;49.068;8.658;2023-01-25T02:40:56;101554.75;;;16.04;35.75
8637;BME280;4356;49.068;8.658;2023-01-25T02:43:28;101549.50;;;16.02;35.66
8637;BME280;4356;49.068;8.658;2023-01-25T02:46:00;101547.47;;;16.04;35.58
8637;BME280;4356;49.068;8.658;2023-01-25T02:48:28;101545.13;;;16.01;36.05
8637;BME280;4356;49.068;8.658;2023-01-25T02:50:53;101540.84;;;15.99;35.78
8637;BME280;4356;49.068;8.658;2023-01-25T02:53:19;101545.41;;;15.98;35.87
8637;BME280;4356;49.068;8.658;2023-01-25T02:55:44;101547.44;;;15.96;35.67
8637;BME280;4356;49.068;8.658;2023-01-25T02:58:10;101553.56;;;15.98;35.77
8637;BME280;4356;49.068;8.658;2023-01-25T03:00:35;101549.00;;;15.99;35.83
8637;BME280;4356;49.068;8.658;2023-01-25T03:03:01;101547.13;;;15.99;35.61
8637;BME280;4356;49.068;8.658;2023-01-25T03:05:27;101547.44;;;15.96;36.04
8637;BME280;4356;49.068;8.658;2023-01-25T03:07:52;101540.34;;;15.95;35.75
8637;BME280;4356;49.068;8.658;2023-01-25T03:10:18;101529.47;;;15.87;35.33
8637;BME280;4356;49.068;8.658;2023-01-25T03:12:44;101553.56;;;15.98;35.98
8637;BME280;4356;49.068;8.658;2023-01-25T03:15:12;101537.81;;;15.94;35.84
8637;BME280;4356;49.068;8.658;2023-01-25T03:17:38;101551.19;;;15.95;36.06
8637;BME280;4356;49.068;8.658;2023-01-25T03:20:04;101534.19;;;15.85;35.98
8637;BME280;4356;49.068;8.658;2023-01-25T03:22:30;101545.94;;;15.94;35.85
8637;BME280;4356;49.068;8.658;2023-01-25T03:24:56;101526.75;;;15.87;35.80
8637;BME280;4356;49.068;8.658;2023-01-25T03:27:22;101541.34;;;15.94;35.88
8637;BME280;4356;49.068;8.658;2023-01-25T03:29:47;101529.16;;;15.90;35.62
8637;BME280;4356;49.068;8.658;2023-01-25T03:32:13;101535.25;;;15.92;36.03
8637;BME280;4356;49.068;8.658;2023-01-25T03:34:39;101526.41;;;15.82;36.07
8637;BME280;4356;49.068;8.658;2023-01-25T03:37:04;101535.56;;;15.89;35.92
8637;BME280;4356;49.068;8.658;2023-01-25T03:39:30;101533.88;;;15.88;35.82
8637;BME280;4356;49.068;8.658;2023-01-25T03:41:56;101547.28;;;15.90;35.79
8637;BME280;4356;49.068;8.658;2023-01-25T03:44:21;101522.31;;;15.78;35.96
8637;BME280;4356;49.068;8.658;2023-01-25T03:46:47;101535.06;;;15.86;35.84
8637;BME280;4356;49.068;8.658;2023-01-25T03:49:13;101533.69;;;15.82;35.64
8637;BME280;4356;49.068;8.658;2023-01-25T03:51:38;101528.94;;;15.84;35.88
8637;BME280;4356;49.068;8.658;2023-01-25T03:54:04;101532.50;;;15.84;35.92
8637;BME280;4356;49.068;8.658;2023-01-25T03:56:30;101542.19;;;15.87;36.14
8637;BME280;4356;49.068;8.658;2023-01-25T03:58:55;101523.69;;;15.74;35.73
8637;BME280;4356;49.068;8.658;2023-01-25T04:01:21;101523.84;;;15.73;36.16
8637;BME280;4356;49.068;8.658;2023-01-25T04:03:47;101537.59;;;15.79;36.13
8637;BME280;4356;49.068;8.658;2023-01-25T04:06:15;101522.84;;;15.74;35.79
8637;BME280;4356;49.068;8.658;2023-01-25T04:08:41;101528.44;;;15.72;36.23
8637;BME280;4356;49.068;8.658;2023-01-25T04:11:08;101542.69;;;15.82;35.74
8637;BME280;4356;49.068;8.658;2023-01-25T04:13:35;101549.13;;;15.81;36.10
8637;BME280;4356;49.068;8.658;2023-01-25T04:16:06;101535.38;;;15.75;36.13
8637;BME280;4356;49.068;8.658;2023-01-25T04:18:33;101540.59;;;15.76;36.25
8637;BME280;4356;49.068;8.658;2023-01-25T04:20:59;101537.06;;;15.76;35.80
8637;BME280;4356;49.068;8.658;2023-01-25T04:23:25;101534.16;;;15.69;35.94
8637;BME280;4356;49.068;8.658;2023-01-25T04:25:56;101541.31;;;15.78;36.01
8637;BME280;4356;49.068;8.658;2023-01-25T04:28:22;101531.81;;;15.74;35.99
8637;BME280;4356;49.068;8.658;2023-01-25T04:30:48;101522.84;;;15.74;36.18
8637;BME280;4356;49.068;8.658;2023-01-25T04:33:14;101514.00;;;15.72;36.11
8637;BME280;4356;49.068;8.658;2023-01-25T04:35:40;101524.69;;;15.73;36.03
8637;BME280;4356;49.068;8.658;2023-01-25T04:38:06;101520.47;;;15.71;36.19
8637;BME280;4356;49.068;8.658;2023-01-25T04:40:32;101525.53;;;15.74;36.30
8637;BME280;4356;49.068;8.658;2023-01-25T04:42:57;101518.91;;;15.68;35.96
8637;BME280;4356;49.068;8.658;2023-01-25T04:45:24;101516.91;;;15.70;36.19
8637;BME280;4356;49.068;8.658;2023-01-25T04:47:55;101518.91;;;15.68;35.84
8637;BME280;4356;49.068;8.658;2023-01-25T04:50:21;101520.59;;;15.69;35.80
8637;BME280;4356;49.068;8.658;2023-01-25T04:52:47;101521.63;;;15.68;36.12
8637;BME280;4356;49.068;8.658;2023-01-25T04:55:12;101522.78;;;15.66;36.22
8637;BME280;4356;49.068;8.658;2023-01-25T04:57:38;101517.38;;;15.66;36.19
8637;BME280;4356;49.068;8.658;2023-01-25T05:00:07;101516.56;;;15.65;36.28
8637;BME280;4356;49.068;8.658;2023-01-25T05:02:33;101514.66;;;15.66;35.85
8637;BME280;4356;49.068;8.658;2023-01-25T05:04:58;101511.97;;;15.66;36.35
8637;BME280;4356;49.068;8.658;2023-01-25T05:07:24;101516.56;;;15.65;35.87
8637;BME280;4356;49.068;8.658;2023-01-25T05:09:50;101520.09;;;15.66;35.96
8637;BME280;4356;49.068;8.658;2023-01-25T05:12:15;101519.25;;;15.65;36.17
8637;BME280;4356;49.068;8.658;2023-01-25T05:14:41;101509.75;;;15.61;36.09
8637;BME280;4356;49.068;8.658;2023-01-25T05:17:07;101514.16;;;15.62;36.33
8637;BME280;4356;49.068;8.658;2023-01-25T05:19:34;101514.66;;;15.66;35.94
8637;BME280;4356;49.068;8.658;2023-01-25T05:22:01;101515.69;;;15.65;36.09
8637;BME280;4356;49.068;8.658;2023-01-25T05:24:29;101512.97;;;15.65;36.33
8637;BME280;4356;49.068;8.658;2023-01-25T05:26:56;101520.25;;;15.64;36.36
8637;BME280;4356;49.068;8.658;2023-01-25T05:29:29;101517.72;;;15.63;35.99
8637;BME280;4356;49.068;8.658;2023-01-25T05:31:57;101500.75;;;15.53;36.04
8637;BME280;4356;49.068;8.658;2023-01-25T05:34:23;101519.56;;;15.62;35.87
8637;BME280;4356;49.068;8.658;2023-01-25T05:36:50;101519.06;;;15.59;36.09
8637;BME280;4356;49.068;8.658;2023-01-25T05:39:16;101519.72;;;15.61;36.14
8637;BME280;4356;49.068;8.658;2023-01-25T05:41:42;101518.88;;;15.60;36.46
8637;BME280;4356;49.068;8.658;2023-01-25T05:44:08;101512.25;;;15.55;36.07
8637;BME280;4356;49.068;8.658;2023-01-25T05:46:33;101491.72;;;15.44;36.29
8637;BME280;4356;49.068;8.658;2023-01-25T05:48:59;101507.53;;;15.57;36.17
8637;BME280;4356;49.068;8.658;2023-01-25T05:51:25;101492.06;;;15.49;36.03
8637;BME280;4356;49.068;8.658;2023-01-25T05:53:53;101513.78;;;15.57;36.24
8637;BME280;4356;49.068;8.658;2023-01-25T05:56:20;101507.00;;;15.53;36.25
8637;BME280;4356;49.068;8.658;2023-01-25T05:58:46;101499.72;;;15.54;36.27
8637;BME280;4356;49.068;8.658;2023-01-25T06:01:12;101496.00;;;15.55;36.07
8637;BME280;4356;49.068;8.658;2023-01-25T06:03:38;101492.75;;;15.51;36.01
8637;BME280;4356;49.068;8.658;2023-01-25T06:06:03;101495.16;;;15.54;36.21
8637;BME280;4356;49.068;8.658;2023-01-25T06:08:31;101485.16;;;15.55;36.28
8637;BME280;4356;49.068;8.658;2023-01-25T06:10:57;101485.38;;;15.61;36.47
8637;BME280;4356;49.068;8.658;2023-01-25T06:13:27;101489.44;;;15.65;35.87
8637;BME280;4356;49.068;8.658;2023-01-25T06:15:53;101478.25;;;15.68;35.86
8637;BME280;4356;49.068;8.658;2023-01-25T06:18:20;101471.50;;;15.72;35.93
8637;BME280;4356;49.068;8.658;2023-01-25T06:20:46;101475.56;;;15.76;36.13
8637;BME280;4356;49.068;8.658;2023-01-25T06:23:13;101462.00;;;15.76;35.72
8637;BME280;4356;49.068;8.658;2023-01-25T06:25:39;101468.47;;;15.83;35.83
8637;BME280;4356;49.068;8.658;2023-01-25T06:28:04;101459.66;;;15.81;35.71
8637;BME280;4356;49.068;8.658;2023-01-25T06:30:30;101462.88;;;15.85;35.73
8637;BME280;4356;49.068;8.658;2023-01-25T06:33:00;101470.19;;;15.92;35.83
8637;BME280;4356;49.068;8.658;2023-01-25T06:35:26;101454.44;;;15.96;35.81
8637;BME280;4356;49.068;8.658;2023-01-25T06:37:55;101456.13;;;15.97;35.78
8637;BME280;4356;49.068;8.658;2023-01-25T06:40:21;101468.16;;;16.02;35.34
8637;BME280;4356;49.068;8.658;2023-01-25T06:42:47;101438.31;;;15.94;35.65
8637;BME280;4356;49.068;8.658;2023-01-25T06:45:12;101449.00;;;16.04;35.30
8637;BME280;4356;49.068;8.658;2023-01-25T06:47:39;101457.31;;;16.10;35.54
8637;BME280;4356;49.068;8.658;2023-01-25T06:50:05;101436.13;;;15.98;35.35
8637;BME280;4356;49.068;8.658;2023-01-25T06:52:31;101470.19;;;16.16;35.52
8637;BME280;4356;49.068;8.658;2023-01-25T06:55:09;101462.72;;;16.18;35.19
8637;BME280;4356;49.068;8.658;2023-01-25T06:57:38;101455.13;;;16.14;35.13
8637;BME280;4356;49.068;8.658;2023-01-25T07:00:04;101463.25;;;16.22;35.37
8637;BME280;4356;49.068;8.658;2023-01-25T07:02:30;101451.72;;;16.20;35.49
8637;BME280;4356;49.068;8.658;2023-01-25T07:04:56;101467.31;;;16.26;35.38
8637;BME280;4356;49.068;8.658;2023-01-25T07:07:21;101463.56;;;16.27;35.05
8637;BME280;4356;49.068;8.658;2023-01-25T07:09:47;101453.06;;;16.24;35.30
8637;BME280;4356;49.068;8.658;2023-01-25T07:12:13;101453.56;;;16.27;35.42
8637;BME280;4356;49.068;8.658;2023-01-25T07:14:39;101447.16;;;16.28;35.33
8637;BME280;4356;49.068;8.658;2023-01-25T07:17:04;101456.47;;;16.34;35.26
8637;BME280;4356;49.068;8.658;2023-01-25T07:19:30;101456.97;;;16.37;35.27
8637;BME280;4356;49.068;8.658;2023-01-25T07:21:55;101451.38;;;16.39;35.16
8637;BME280;4356;49.068;8.658;2023-01-25T07:24:21;101448.97;;;16.36;35.24
8637;BME280;4356;49.068;8.658;2023-01-25T07:26:51;101446.81;;;16.39;35.15
8637;BME280;4356;49.068;8.658;2023-01-25T07:29:17;101448.50;;;16.40;35.07
8637;BME280;4356;49.068;8.658;2023-01-25T07:31:43;101449.00;;;16.44;34.98
8637;BME280;4356;49.068;8.658;2023-01-25T07:34:12;101447.13;;;16.44;35.23
8637;BME280;4356;49.068;8.658;2023-01-25T07:36:39;101447.66;;;16.48;35.10
8637;BME280;4356;49.068;8.658;2023-01-25T07:39:05;101442.06;;;16.50;34.74
8637;BME280;4356;49.068;8.658;2023-01-25T07:41:35;101451.06;;;16.50;35.27
8637;BME280;4356;49.068;8.658;2023-01-25T07:44:03;101446.63;;;16.49;34.87
8637;BME280;4356;49.068;8.658;2023-01-25T07:46:28;101447.63;;;16.56;34.71
8637;BME280;4356;49.068;8.658;2023-01-25T07:48:56;101450.53;;;16.55;35.13
8637;BME280;4356;49.068;8.658;2023-01-25T07:51:27;101445.97;;;16.55;35.15
8637;BME280;4356;49.068;8.658;2023-01-25T07:54:00;101447.81;;;16.55;35.25
8637;BME280;4356;49.068;8.658;2023-01-25T07:56:32;101464.28;;;16.61;35.13
8637;BME280;4356;49.068;8.658;2023-01-25T07:58:59;101458.66;;;16.63;35.05
8637;BME280;4356;49.068;8.658;2023-01-25T08:01:27;101453.06;;;16.64;34.78
8637;BME280;4356;49.068;8.658;2023-01-25T08:03:55;101452.03;;;16.65;34.98
8637;BME280;4356;49.068;8.658;2023-01-25T08:06:27;101440.34;;;16.65;35.06
8637;BME280;4356;49.068;8.658;2023-01-25T08:08:56;101442.72;;;16.68;35.09
8637;BME280;4356;49.068;8.658;2023-01-25T08:11:25;101438.47;;;16.65;34.84
8637;BME280;4356;49.068;8.658;2023-01-25T08:13:51;101440.84;;;16.68;34.98
8637;BME280;4356;49.068;8.658;2023-01-25T08:16:19;101452.38;;;16.70;34.96
8637;BME280;4356;49.068;8.658;2023-01-25T08:18:50;101439.63;;;16.71;34.81
8637;BME280;4356;49.068;8.658;2023-01-25T08:21:16;101452.72;;;16.75;34.75
8637;BME280;4356;49.068;8.658;2023-01-25T08:23:43;101441.16;;;16.73;34.90
8637;BME280;4356;49.068;8.658;2023-01-25T08:26:10;101443.03;;;16.73;35.04
8637;BME280;4356;49.068;8.658;2023-01-25T08:28:37;101447.09;;;16.77;35.02
8637;BME280;4356;49.068;8.658;2023-01-25T08:31:15;101442.34;;;16.79;34.92
8637;BME280;4356;49.068;8.658;2023-01-25T08:33:42;101436.41;;;16.75;34.88
8637;BME280;4356;49.068;8.658;2023-01-25T08:36:10;101440.63;;;16.78;35.04
8637;BME280;4356;49.068;8.658;2023-01-25T08:38:36;101441.16;;;16.81;34.98
8637;BME280;4356;49.068;8.658;2023-01-25T08:41:11;101427.06;;;16.78;34.85
8637;BME280;4356;49.068;8.658;2023-01-25T08:43:37;101436.56;;;16.82;34.96
8637;BME280;4356;49.068;8.658;2023-01-25T08:46:10;101434.53;;;16.84;34.80
8637;BME280;4356;49.068;8.658;2023-01-25T08:48:36;101424.19;;;16.79;34.80
8637;BME280;4356;49.068;8.658;2023-01-25T08:51:02;101428.09;;;16.85;34.73
8637;BME280;4356;49.068;8.658;2023-01-25T08:53:29;101427.06;;;16.86;35.00
8637;BME280;4356;49.068;8.658;2023-01-25T08:56:00;101424.16;;;16.87;34.79
8637;BME280;4356;49.068;8.658;2023-01-25T08:58:26;101423.28;;;16.87;34.65
8637;BME280;4356;49.068;8.658;2023-01-25T09:00:52;101418.91;;;16.86;34.98
8637;BME280;4356;49.068;8.658;2023-01-25T09:03:18;101421.09;;;16.90;34.72
8637;BME280;4356;49.068;8.658;2023-01-25T09:05:43;101427.19;;;16.92;34.80
8637;BME280;4356;49.068;8.658;2023-01-25T09:08:11;101417.53;;;16.90;34.65
8637;BME280;4356;49.068;8.658;2023-01-25T09:10:39;101417.34;;;16.91;34.86
8637;BME280;4356;49.068;8.658;2023-01-25T09:13:05;101414.28;;;16.94;34.52
8637;BME280;4356;49.068;8.658;2023-01-25T09:15:30;101410.75;;;16.94;34.87
8637;BME280;4356;49.068;8.658;2023-01-25T09:17:56;101407.84;;;16.95;34.97
8637;BME280;4356;49.068;8.658;2023-01-25T09:20:23;101412.06;;;16.98;34.79
8637;BME280;4356;49.068;8.658;2023-01-25T09:22:49;101418.34;;;16.98;34.85
8637;BME280;4356;49.068;8.658;2023-01-25T09:25:14;101418.34;;;16.98;34.65
8637;BME280;4356;49.068;8.658;2023-01-25T09:27:40;101415.25;;;17.01;34.67
8637;BME280;4356;49.068;8.658;2023-01-25T09:30:08;101411.53;;;17.02;34.50
8637;BME280;4356;49.068;8.658;2023-01-25T09:32:34;101408.44;;;17.13;34.53
8637;BME280;4356;49.068;8.658;2023-01-25T09:34:59;101408.88;;;17.25;34.51
8637;BME280;4356;49.068;8.658;2023-01-25T09:37:25;101404.75;;;17.37;34.55
8637;BME280;4356;49.068;8.658;2023-01-25T09:39:51;101408.75;;;17.57;34.15
8637;BME280;4356;49.068;8.658;2023-01-25T09:47:16;101403.50;;;18.15;33.05
8637;BME280;4356;49.068;8.658;2023-01-25T09:53:14;101402.69;;;18.52;32.74
8637;BME280;4356;49.068;8.658;2023-01-25T09:55:41;101398.97;;;18.68;32.36
8637;BME280;4356;49.068;8.658;2023-01-25T09:58:18;101403.19;;;18.85;32.11
8637;BME280;4356;49.068;8.658;2023-01-25T10:00:45;101405.03;;;18.99;32.33
8637;BME280;4356;49.068;8.658;2023-01-25T10:03:30;101403.16;;;19.14;31.99
8637;BME280;4356;49.068;8.658;2023-01-25T10:06:00;101401.44;;;19.27;31.92
8637;BME280;4356;49.068;8.658;2023-01-25T10:08:58;101404.81;;;19.44;31.69
8637;BME280;4356;49.068;8.658;2023-01-25T10:11:27;101384.91;;;19.43;31.67
8637;BME280;4356;49.068;8.658;2023-01-25T10:13:54;101377.50;;;19.59;31.24
8637;BME280;4356;49.068;8.658;2023-01-25T10:22:14;101384.38;;;19.97;30.82
8637;BME280;4356;49.068;8.658;2023-01-25T10:30:29;101375.25;;;20.25;30.52
8637;BME280;4356;49.068;8.658;2023-01-25T10:32:57;101373.41;;;20.32;30.56
8637;BME280;4356;49.068;8.658;2023-01-25T10:35:30;101370.75;;;20.45;30.66
8637;BME280;4356;49.068;8.658;2023-01-25T10:38:20;101367.88;;;20.54;30.40
8637;BME280;4356;49.068;8.658;2023-01-25T10:41:38;101368.53;;;20.62;30.21
8637;BME280;4356;49.068;8.658;2023-01-25T10:43:38;101367.97;;;20.73;30.19
8637;BME280;4356;49.068;8.658;2023-01-25T10:46:16;101369.06;;;20.79;30.27
8637;BME280;4356;49.068;8.658;2023-01-25T10:48:43;101370.59;;;20.88;30.14
8637;BME280;4356;49.068;8.658;2023-01-25T10:51:27;101365.63;;;20.98;29.91
8637;BME280;4356;49.068;8.658;2023-01-25T10:54:02;101368.59;;;21.03;29.81
8637;BME280;4356;49.068;8.658;2023-01-25T10:56:29;101358.53;;;21.10;29.74
8637;BME280;4356;49.068;8.658;2023-01-25T10:59:20;101347.22;;;21.19;29.46
8637;BME280;4356;49.068;8.658;2023-01-25T11:01:47;101350.59;;;21.21;29.63
8637;BME280;4356;49.068;8.658;2023-01-25T11:06:53;101344.06;;;21.16;29.60
8637;BME280;4356;49.068;8.658;2023-01-25T11:11:58;101342.94;;;21.04;29.74
8637;BME280;4356;49.068;8.658;2023-01-25T11:14:27;101331.72;;;20.92;30.00
8637;BME280;4356;49.068;8.658;2023-01-25T11:16:54;101320.31;;;20.82;30.09
8637;BME280;4356;49.068;8.658;2023-01-25T11:19:29;101327.88;;;20.80;30.14
8637;BME280;4356;49.068;8.658;2023-01-25T11:21:57;101318.56;;;20.68;30.30
8637;BME280;4356;49.068;8.658;2023-01-25T11:24:32;101320.03;;;20.64;30.43
8637;BME280;4356;49.068;8.658;2023-01-25T11:27:19;101314.09;;;20.54;30.53
8637;BME280;4356;49.068;8.658;2023-01-25T11:32:34;101307.69;;;20.40;30.60
8637;BME280;4356;49.068;8.658;2023-01-25T11:35:00;101293.56;;;20.30;30.73
8637;BME280;4356;49.068;8.658;2023-01-25T11:43:33;101288.41;;;20.14;30.80
8637;BME280;4356;49.068;8.658;2023-01-25T11:46:30;101286.00;;;20.05;31.11
8637;BME280;4356;49.068;8.658;2023-01-25T11:49:15;101263.66;;;19.95;31.36
8637;BME280;4356;49.068;8.658;2023-01-25T11:57:25;101257.94;;;19.83;31.38
8637;BME280;4356;49.068;8.658;2023-01-25T12:06:05;101247.31;;;19.67;31.55
8637;BME280;4356;49.068;8.658;2023-01-25T12:17:04;101219.28;;;19.52;31.79
8637;BME280;4356;49.068;8.658;2023-01-25T12:24:58;101205.97;;;19.42;31.93
8637;BME280;4356;49.068;8.658;2023-01-25T12:30:32;101180.25;;;19.30;32.02
8637;BME280;4356;49.068;8.658;2023-01-25T12:33:08;101180.75;;;19.34;32.08
8637;BME280;4356;49.068;8.658;2023-01-25T12:41:18;101179.81;;;19.27;31.97
8637;BME280;4356;49.068;8.658;2023-01-25T12:46:33;101150.38;;;19.16;32.20
8637;BME280;4356;49.068;8.658;2023-01-25T12:49:11;101151.66;;;19.20;32.03
8637;BME280;4356;49.068;8.658;2023-01-25T12:51:40;101149.13;;;19.18;32.11
8637;BME280;4356;49.068;8.658;2023-01-25T12:54:16;101136.88;;;19.08;32.32
8637;BME280;4356;49.068;8.658;2023-01-25T12:59:45;101149.72;;;19.14;32.00
8637;BME280;4356;49.068;8.658;2023-01-25T13:02:39;101142.97;;;19.10;32.39
8637;BME280;4356;49.068;8.658;2023-01-25T13:11:07;101117.94;;;19.00;31.66
8637;BME280;4356;49.068;8.658;2023-01-25T13:13:35;101116.13;;;19.07;31.39
8637;BME280;4356;49.068;8.658;2023-01-25T13:16:41;101111.31;;;19.09;31.88
8637;BME280;4356;49.068;8.658;2023-01-25T13:21:58;101114.81;;;19.03;32.10
8637;BME280;4356;49.068;8.658;2023-01-25T13:24:29;101113.53;;;18.99;32.11
8637;BME280;4356;49.068;8.658;2023-01-25T13:31:56;101105.75;;;18.96;32.27
8637;BME280;4356;49.068;8.658;2023-01-25T13:39:46;101090.00;;;18.91;32.01
8637;BME280;4356;49.068;8.658;2023-01-25T13:44:43;101084.28;;;18.86;32.19
8637;BME280;4356;49.068;8.658;2023-01-25T13:47:12;101086.19;;;18.86;32.49
8637;BME280;4356;49.068;8.658;2023-01-25T13:50:01;101083.63;;;18.84;32.17
8637;BME280;4356;49.068;8.658;2023-01-25T13:52:28;101076.91;;;18.80;32.40
8637;BME280;4356;49.068;8.658;2023-01-25T13:54:56;101083.19;;;18.81;32.34
8637;BME280;4356;49.068;8.658;2023-01-25T13:57:25;101081.72;;;18.78;32.52
8637;BME280;4356;49.068;8.658;2023-01-25T14:00:06;101082.72;;;18.77;32.50
8637;BME280;4356;49.068;8.658;2023-01-25T14:02:36;101082.94;;;18.76;32.55
8637;BME280;4356;49.068;8.658;2023-01-25T14:05:02;101085.28;;;18.79;32.60
8637;BME280;4356;49.068;8.658;2023-01-25T14:07:32;101068.66;;;18.74;32.61
8637;BME280;4356;49.068;8.658;2023-01-25T14:10:07;101075.16;;;18.73;32.58
8637;BME280;4356;49.068;8.658;2023-01-25T14:12:41;101075.63;;;18.76;32.45
8637;BME280;4356;49.068;8.658;2023-01-25T14:15:22;101086.09;;;18.79;32.41
8637;BME280;4356;49.068;8.658;2023-01-25T14:18:10;101081.72;;;18.78;32.46
8637;BME280;4356;49.068;8.658;2023-01-25T14:20:37;101076.47;;;18.77;32.62
8637;BME280;4356;49.068;8.658;2023-01-25T14:23:03;101068.09;;;18.78;32.47
8637;BME280;4356;49.068;8.658;2023-01-25T14:25:32;101060.94;;;18.77;32.69
8637;BME280;4356;49.068;8.658;2023-01-25T14:27:59;101056.94;;;18.73;32.63
8637;BME280;4356;49.068;8.658;2023-01-25T14:30:34;101052.13;;;18.75;32.54
8637;BME280;4356;49.068;8.658;2023-01-25T14:33:02;101051.31;;;18.75;32.49
8637;BME280;4356;49.068;8.658;2023-01-25T14:35:38;101045.84;;;18.75;32.67
8637;BME280;4356;49.068;8.658;2023-01-25T14:40:50;101029.88;;;18.72;32.88
8637;BME280;4356;49.068;8.658;2023-01-25T14:43:17;101037.69;;;18.75;32.62
8637;BME280;4356;49.068;8.658;2023-01-25T14:45:47;101035.34;;;18.72;32.58
8637;BME280;4356;49.068;8.658;2023-01-25T14:48:39;101038.72;;;18.74;32.47
8637;BME280;4356;49.068;8.658;2023-01-25T14:51:16;101028.66;;;18.74;32.50
8637;BME280;4356;49.068;8.658;2023-01-25T14:53:45;101026.34;;;18.71;32.81
8637;BME280;4356;49.068;8.658;2023-01-25T14:56:35;101025.09;;;18.74;32.58
8637;BME280;4356;49.068;8.658;2023-01-25T14:59:06;101027.16;;;18.72;32.28
8637;BME280;4356;49.068;8.658;2023-01-25T15:01:37;101011.88;;;18.71;32.67
8637;BME280;4356;49.068;8.658;2023-01-25T15:04:09;101015.47;;;18.71;32.65